Soldotna, AK

1:02 AM AKST on December 11, 2017 (GMT -0900)
Soldotna

Weather History for PASX - February, 2014

Change the Weather History Date:

Sunday, February 23, 2014

  Actual Average Record
Temperature  
Mean Temperature 27 °F -  
Max Temperature 35 °F 29 °F 46 °F (1970)
Min Temperature 19 °F 7 °F -24 °F (1954)
Degree Days  
Heating Degree Days 38    
Moisture  
Dew Point 12 °F    
Average Humidity 50    
Maximum Humidity 69    
Minimum Humidity 38    
Precipitation  
Precipitation 0.00 in - - ()
Sea Level Pressure  
Sea Level Pressure 30.12 in    
Wind  
Wind Speed 8 mph (NE)    
Max Wind Speed 18 mph    
Max Gust Speed 23 mph    
Visibility 10 miles    
Events      
Averages and records for this station are not official NWS values.
T = Trace of Precipitation, MM = Missing Value Source: NWS Daily Summary

Daily Weather History Graph

Daily Weather History Graph

Search for Another Location

Airport or City:

Trip Planner

Search our weather history database for the weather conditions in past years. The results will help you decide how hot, cold, wet, or windy it might be!

Date:

Astronomy

Feb. 23, 2014 Rise Set
Actual Time 8:20 AM AKST 6:15 PM AKST
Civil Twilight 7:37 AM AKST 6:58 PM AKST
Nautical Twilight 6:48 AM AKST 7:47 PM AKST
Astronomical Twilight 5:59 AM AKST 8:37 PM AKST
Moon 4:21 AM AKST (2/23) 11:34 AM AKST (2/23)
Length of Visible Light 11h 21m
Length of Day
9h 55m
Last Quarter, 37% of the Moon is Illuminated
Feb 23
Last Quarter
Feb 28
New
Mar 8
First Quarter
Mar 16
Full
Mar 23
Last Quarter

Hourly Weather History & Observations

Time (AKST) Temp. Windchill Dew Point Humidity Pressure Visibility Wind Dir Wind Speed Gust Speed Precip Events Conditions
12:16 AM 26.6 °F 20.0 °F 15.8 °F 64% 30.13 in 10.0 mi NNE 5.8 mph - N/A   Overcast
12:36 AM 26.6 °F - 15.8 °F 64% 30.13 in 10.0 mi Calm Calm - N/A   Mostly Cloudy
12:56 AM 26.6 °F 21.2 °F 15.8 °F 64% 30.14 in 10.0 mi NE 4.6 mph - N/A   Overcast
1:16 AM 26.6 °F 20.0 °F 15.8 °F 64% 30.14 in 10.0 mi North 5.8 mph - N/A   Mostly Cloudy
1:36 AM 26.6 °F 22.6 °F 15.8 °F 64% 30.13 in 10.0 mi NNW 3.5 mph - N/A   Mostly Cloudy
1:56 AM 28.4 °F 21.2 °F 17.6 °F 64% 30.13 in 10.0 mi NE 6.9 mph - N/A   Mostly Cloudy
2:16 AM 26.6 °F 22.6 °F 15.8 °F 64% 30.12 in 10.0 mi ENE 3.5 mph - N/A   Overcast
2:36 AM 28.4 °F 19.7 °F 17.6 °F 64% 30.12 in 10.0 mi NE 9.2 mph - N/A   Overcast
2:56 AM 28.4 °F 24.6 °F 17.6 °F 64% 30.13 in 10.0 mi NNE 3.5 mph - N/A   Overcast
3:16 AM 28.4 °F 23.3 °F 17.6 °F 64% 30.13 in 10.0 mi North 4.6 mph - N/A   Overcast
3:36 AM 28.4 °F 20.4 °F 19.4 °F 69% 30.12 in 10.0 mi ENE 8.1 mph - N/A   Overcast
3:56 AM 30.2 °F 25.4 °F 19.4 °F 64% 30.13 in 10.0 mi East 4.6 mph - N/A   Mostly Cloudy
4:16 AM 32.0 °F 23.0 °F 19.4 °F 60% 30.12 in 10.0 mi ENE 11.5 mph 17.3 mph N/A   Partly Cloudy
4:36 AM 32.0 °F 21.6 °F 17.6 °F 55% 30.12 in 10.0 mi East 15.0 mph 18.4 mph N/A   Clear
4:56 AM 32.0 °F 23.0 °F 15.8 °F 51% 30.12 in 10.0 mi ENE 11.5 mph - N/A   Clear
5:16 AM 32.0 °F 20.5 °F 15.8 °F 51% 30.12 in 10.0 mi East 18.4 mph 23.0 mph N/A   Clear
5:36 AM 30.2 °F 19.3 °F 14.0 °F 51% 30.13 in 10.0 mi East 15.0 mph 19.6 mph N/A   Clear
5:56 AM 30.2 °F 21.9 °F 14.0 °F 51% 30.14 in 10.0 mi ENE 9.2 mph - N/A   Clear
6:16 AM 28.4 °F 19.7 °F 12.2 °F 51% 30.14 in 10.0 mi ENE 9.2 mph - N/A   Clear
6:36 AM 30.2 °F 21.3 °F 14.0 °F 51% 30.14 in 10.0 mi ENE 10.4 mph - N/A   Clear
6:56 AM 28.4 °F 19.7 °F 14.0 °F 55% 30.14 in 10.0 mi ENE 9.2 mph - N/A   Clear
7:16 AM 28.4 °F 18.0 °F 12.2 °F 51% 30.15 in 10.0 mi ENE 12.7 mph - N/A   Clear
7:36 AM 28.4 °F 19.7 °F 12.2 °F 51% 30.14 in 10.0 mi ENE 9.2 mph - N/A   Clear
7:56 AM 26.6 °F 19.1 °F 12.2 °F 55% 30.14 in 10.0 mi NE 6.9 mph - N/A   Clear
8:16 AM 24.8 °F 19.1 °F 12.2 °F 59% 30.15 in 10.0 mi North 4.6 mph - N/A   Clear
8:36 AM 28.4 °F 19.1 °F 12.2 °F 51% 30.14 in 10.0 mi NE 10.4 mph - N/A   Clear
8:56 AM 28.4 °F 18.5 °F 12.2 °F 51% 30.15 in 10.0 mi ENE 11.5 mph 16.1 mph N/A   Clear
9:16 AM 30.2 °F 22.6 °F 12.2 °F 47% 30.16 in 10.0 mi NE 8.1 mph 16.1 mph N/A   Clear
9:36 AM 28.4 °F 19.1 °F 10.4 °F 47% 30.16 in 10.0 mi ENE 10.4 mph - N/A   Clear
9:56 AM 26.6 °F 15.2 °F 8.6 °F 47% 30.15 in 10.0 mi NE 13.8 mph 18.4 mph N/A   Clear
10:16 AM 24.8 °F 12.4 °F 10.4 °F 54% 30.16 in 10.0 mi ENE 15.0 mph 20.7 mph N/A   Clear
10:36 AM 24.8 °F 13.4 °F 10.4 °F 54% 30.16 in 10.0 mi ENE 12.7 mph - N/A   Clear
10:56 AM 26.6 °F 16.2 °F 10.4 °F 51% 30.16 in 10.0 mi ENE 11.5 mph - N/A   Clear
11:16 AM 26.6 °F 16.2 °F 10.4 °F 51% 30.16 in 10.0 mi East 11.5 mph - N/A   Clear
11:36 AM 28.4 °F 18.0 °F 10.4 °F 47% 30.15 in 10.0 mi ENE 12.7 mph - N/A   Clear
11:56 AM 30.2 °F 20.8 °F 10.4 °F 44% 30.16 in 10.0 mi NE 11.5 mph - N/A   Clear
12:16 PM 30.2 °F 22.6 °F 10.4 °F 44% 30.15 in 10.0 mi NE 8.1 mph - N/A   Clear
12:36 PM 30.2 °F 21.9 °F 10.4 °F 44% 30.15 in 10.0 mi NE 9.2 mph - N/A   Clear
12:56 PM 32.0 °F 24.2 °F 10.4 °F 41% 30.15 in 10.0 mi NNE 9.2 mph - N/A   Clear
1:16 PM 32.0 °F 23.6 °F 10.4 °F 41% 30.14 in 10.0 mi NE 10.4 mph - N/A   Clear
1:36 PM 33.8 °F 27.0 °F 12.2 °F 41% 30.14 in 10.0 mi NNE 8.1 mph - N/A   Clear
1:56 PM 35.6 °F 29.9 °F 12.2 °F 38% 30.14 in 10.0 mi North 6.9 mph - N/A   Clear
2:16 PM 35.6 °F 26.6 °F 14.0 °F 41% 30.13 in 10.0 mi NE 13.8 mph 18.4 mph N/A   Clear
2:36 PM 35.6 °F 29.2 °F 12.2 °F 38% 30.13 in 10.0 mi NE 8.1 mph - N/A   Clear
2:56 PM 35.6 °F 28.6 °F 12.2 °F 38% 30.13 in 10.0 mi NE 9.2 mph - N/A   Clear
3:16 PM 35.6 °F 27.1 °F 14.0 °F 41% 30.12 in 10.0 mi NE 12.7 mph 17.3 mph N/A   Clear
3:36 PM 35.6 °F 27.5 °F 12.2 °F 38% 30.11 in 10.0 mi ENE 11.5 mph 16.1 mph N/A   Clear
3:56 PM 33.8 °F 24.8 °F 12.2 °F 41% 30.11 in 10.0 mi NE 12.7 mph 18.4 mph N/A   Clear
4:16 PM 33.8 °F 25.8 °F 12.2 °F 41% 30.11 in 10.0 mi NE 10.4 mph 16.1 mph N/A   Clear
4:36 PM 33.8 °F 27.0 °F 12.2 °F 41% 30.10 in 10.0 mi NE 8.1 mph - N/A   Clear
4:56 PM 33.8 °F 25.3 °F 10.4 °F 38% 30.10 in 10.0 mi NE 11.5 mph - N/A   Clear
5:16 PM 33.8 °F 24.8 °F 10.4 °F 38% 30.09 in 10.0 mi ENE 12.7 mph 17.3 mph N/A   Clear
5:36 PM 32.0 °F 22.1 °F 10.4 °F 41% 30.08 in 10.0 mi ENE 13.8 mph 18.4 mph N/A   Clear
5:56 PM 30.2 °F 20.2 °F 10.4 °F 44% 30.08 in 10.0 mi ENE 12.7 mph - N/A   Clear
6:16 PM 30.2 °F 20.8 °F 10.4 °F 44% 30.08 in 10.0 mi NE 11.5 mph - N/A   Clear
6:36 PM 30.2 °F 20.8 °F 8.6 °F 40% 30.08 in 10.0 mi NE 11.5 mph - N/A   Clear
6:56 PM 28.4 °F 19.1 °F 10.4 °F 47% 30.09 in 10.0 mi NE 10.4 mph - N/A   Clear
7:16 PM 28.4 °F 20.4 °F 8.6 °F 43% 30.09 in 10.0 mi NE 8.1 mph - N/A   Clear
7:36 PM 28.4 °F 21.2 °F 8.6 °F 43% 30.09 in 10.0 mi NNE 6.9 mph - N/A   Clear
7:56 PM 28.4 °F 19.7 °F 10.4 °F 47% 30.09 in 10.0 mi ENE 9.2 mph - N/A   Clear
8:16 PM 26.6 °F - 8.6 °F 47% 30.09 in 10.0 mi Calm Calm - N/A   Clear
8:36 PM 26.6 °F - 10.4 °F 51% 30.09 in 10.0 mi Calm Calm - N/A   Clear
8:56 PM 26.6 °F 19.1 °F 8.6 °F 47% 30.09 in 10.0 mi East 6.9 mph - N/A   Clear
9:16 PM 24.8 °F 16.9 °F 10.4 °F 54% 30.09 in 10.0 mi East 6.9 mph - N/A   Clear
9:36 PM 24.8 °F 19.1 °F 8.6 °F 50% 30.10 in 10.0 mi East 4.6 mph - N/A   Clear
9:56 PM 24.8 °F 20.5 °F 8.6 °F 50% 30.10 in 10.0 mi East 3.5 mph - N/A   Clear
10:16 PM 24.8 °F 19.1 °F 8.6 °F 50% 30.09 in 10.0 mi East 4.6 mph - N/A   Clear
10:36 PM 24.8 °F 16.1 °F 8.6 °F 50% 30.09 in 10.0 mi East 8.1 mph - N/A   Clear
10:56 PM 23.0 °F 13.9 °F 8.6 °F 54% 30.09 in 10.0 mi ENE 8.1 mph - N/A   Clear
11:16 PM 21.2 °F 12.6 °F 6.8 °F 54% 30.09 in 10.0 mi East 6.9 mph - N/A   Clear
11:36 PM 19.4 °F 11.5 °F 8.6 °F 63% 30.09 in 10.0 mi East 5.8 mph - N/A   Clear
11:56 PM 19.4 °F 10.4 °F 6.8 °F 58% 30.09 in 10.0 mi East 6.9 mph - N/A   Clear